RYR115 EDDK-LMML
Flight info
| Callsign | RYR115 |
|---|---|
| Flight time | N/A |
| Altitude | 34000 |
| Route | KUMIK4X KUMIK Y854 BOMBI DCT GIGET DCT ABUKA/N0457F330 L607 TEDGO DCT BATUB DCT TIRUL M738 NATAG DCT LORLO DCT UNTAD/N0454F350 DCT NEGIK DCT ADOSA DCT MARON/N0387F190 L12 GZO |
| Aircraft | B738/M-SDE2E3FGHIRWXY/LB1 |
Departure
| Time | 2026-05-01 13:36 |
|---|---|
| Airport | Cologne Bonn Airport (EDDK) |
Arrival
| Time | N/A |
|---|---|
| Airport | Malta International Airport (LMML) |
| Time | Latitude | Longitude | Altitude | Speed | Heading |
|---|---|---|---|---|---|
| 2026-05-01 13:19 | 50.88086 | 7.12146 | 241 ft | 0 kts | 216° |
| 2026-05-01 13:30 | 50.88124 | 7.12189 | 240 ft | 2 kts | 216° |
| 2026-05-01 13:31 | 50.88145 | 7.12209 | 240 ft | 2 kts | 178° |
| 2026-05-01 13:31 | 50.88162 | 7.12190 | 240 ft | 0 kts | 125° |
| 2026-05-01 13:33 | 50.88146 | 7.12225 | 240 ft | 7 kts | 126° |
| 2026-05-01 13:33 | 50.88088 | 7.12353 | 240 ft | 6 kts | 125° |
| 2026-05-01 13:34 | 50.88031 | 7.12493 | 240 ft | 6 kts | 120° |
| 2026-05-01 13:34 | 50.87991 | 7.12716 | 240 ft | 12 kts | 77° |
| 2026-05-01 13:35 | 50.87978 | 7.13002 | 241 ft | 13 kts | 128° |
| 2026-05-01 13:35 | 50.87913 | 7.13107 | 239 ft | 16 kts | 137° |
| 2026-05-01 13:35 | 50.87199 | 7.14139 | 250 ft | 134 kts | 139° |
| 2026-05-01 13:36 | 50.86415 | 7.15261 | 665 ft | 153 kts | 138° |
| 2026-05-01 13:36 | 50.85719 | 7.16286 | 1554 ft | 139 kts | 132° |
| 2026-05-01 13:36 | 50.84786 | 7.19247 | 2641 ft | 166 kts | 110° |
| 2026-05-01 13:37 | 50.84411 | 7.21024 | 3267 ft | 176 kts | 110° |
| 2026-05-01 13:37 | 50.84037 | 7.22864 | 3940 ft | 177 kts | 110° |
| 2026-05-01 13:37 | 50.83665 | 7.24743 | 4447 ft | 185 kts | 109° |
| 2026-05-01 13:37 | 50.83279 | 7.26750 | 4913 ft | 195 kts | 109° |
| 2026-05-01 13:38 | 50.82521 | 7.30912 | 6058 ft | 205 kts | 104° |
| 2026-05-01 13:38 | 50.82258 | 7.33203 | 6417 ft | 223 kts | 102° |
| 2026-05-01 13:38 | 50.81994 | 7.35667 | 6999 ft | 230 kts | 102° |
| 2026-05-01 13:39 | 50.81736 | 7.38090 | 7821 ft | 227 kts | 102° |
| 2026-05-01 13:39 | 50.81469 | 7.40551 | 8579 ft | 226 kts | 102° |
| 2026-05-01 13:39 | 50.81195 | 7.43015 | 9232 ft | 230 kts | 102° |
| 2026-05-01 13:39 | 50.80904 | 7.45532 | 9729 ft | 241 kts | 102° |
| 2026-05-01 13:40 | 50.80579 | 7.48123 | 10448 ft | 241 kts | 103° |
| 2026-05-01 13:40 | 50.80215 | 7.50643 | 11367 ft | 230 kts | 105° |
| 2026-05-01 13:40 | 50.79820 | 7.53125 | 11738 ft | 244 kts | 105° |
| 2026-05-01 13:40 | 50.79314 | 7.55784 | 12102 ft | 258 kts | 112° |
| 2026-05-01 13:41 | 50.78574 | 7.58405 | 12450 ft | 272 kts | 110° |
| 2026-05-01 13:41 | 50.78249 | 7.61428 | 12748 ft | 290 kts | 88° |
| 2026-05-01 13:41 | 50.78596 | 7.64652 | 13099 ft | 306 kts | 77° |
| 2026-05-01 13:41 | 50.79136 | 7.67997 | 13428 ft | 321 kts | 78° |
| 2026-05-01 13:42 | 50.79660 | 7.71515 | 13759 ft | 335 kts | 79° |
| 2026-05-01 13:42 | 50.80132 | 7.75200 | 14112 ft | 348 kts | 81° |
| 2026-05-01 13:42 | 50.80555 | 7.78930 | 14677 ft | 349 kts | 82° |
| 2026-05-01 13:42 | 50.80978 | 7.82784 | 15295 ft | 354 kts | 82° |
| 2026-05-01 13:43 | 50.81398 | 7.86616 | 15962 ft | 357 kts | 82° |
| 2026-05-01 13:43 | 50.81818 | 7.90450 | 16612 ft | 359 kts | 81° |
| 2026-05-01 13:43 | 50.82245 | 7.94371 | 17223 ft | 362 kts | 82° |
| 2026-05-01 13:43 | 50.82511 | 7.98318 | 17809 ft | 365 kts | 89° |
| 2026-05-01 13:44 | 50.82277 | 8.02305 | 18372 ft | 368 kts | 103° |
| 2026-05-01 13:44 | 50.81381 | 8.06129 | 18921 ft | 371 kts | 117° |
| 2026-05-01 13:44 | 50.80023 | 8.09575 | 19450 ft | 376 kts | 125° |
| 2026-05-01 13:44 | 50.78294 | 8.12714 | 19992 ft | 380 kts | 135° |
| 2026-05-01 13:45 | 50.76231 | 8.15347 | 20501 ft | 385 kts | 143° |
| 2026-05-01 13:45 | 50.73985 | 8.17682 | 21011 ft | 390 kts | 147° |
| 2026-05-01 13:45 | 50.71684 | 8.19893 | 21518 ft | 393 kts | 147° |
| 2026-05-01 13:45 | 50.69339 | 8.22112 | 22018 ft | 396 kts | 147° |
| 2026-05-01 13:46 | 50.66965 | 8.24375 | 22529 ft | 399 kts | 147° |
| 2026-05-01 13:46 | 50.64591 | 8.26667 | 23025 ft | 402 kts | 147° |
| 2026-05-01 13:46 | 50.62203 | 8.28997 | 23492 ft | 405 kts | 147° |
| 2026-05-01 13:46 | 50.59817 | 8.31345 | 23938 ft | 409 kts | 146° |
| 2026-05-01 13:47 | 50.57407 | 8.33728 | 24385 ft | 412 kts | 146° |
| 2026-05-01 13:47 | 50.54953 | 8.36163 | 24821 ft | 415 kts | 146° |
| 2026-05-01 13:47 | 50.52527 | 8.38573 | 25228 ft | 419 kts | 146° |
| 2026-05-01 13:47 | 50.50064 | 8.41021 | 25641 ft | 422 kts | 146° |
| 2026-05-01 13:48 | 50.47577 | 8.43491 | 26047 ft | 425 kts | 146° |
| 2026-05-01 13:48 | 50.45060 | 8.45988 | 26481 ft | 427 kts | 146° |
| 2026-05-01 13:48 | 50.42536 | 8.48490 | 26887 ft | 429 kts | 146° |
| 2026-05-01 13:48 | 50.39984 | 8.51018 | 27264 ft | 432 kts | 146° |
| 2026-05-01 13:49 | 50.37423 | 8.53535 | 27607 ft | 434 kts | 147° |
| 2026-05-01 13:49 | 50.34822 | 8.55922 | 27853 ft | 438 kts | 149° |
| 2026-05-01 13:49 | 50.32119 | 8.58225 | 28152 ft | 440 kts | 150° |
| 2026-05-01 13:49 | 50.29427 | 8.60445 | 28526 ft | 442 kts | 150° |
| 2026-05-01 13:50 | 50.26686 | 8.62686 | 28860 ft | 445 kts | 150° |
| 2026-05-01 13:50 | 50.23948 | 8.64924 | 29194 ft | 448 kts | 150° |
| 2026-05-01 13:50 | 50.21192 | 8.67184 | 29504 ft | 451 kts | 151° |
| 2026-05-01 13:50 | 50.18451 | 8.69440 | 29825 ft | 454 kts | 151° |
| 2026-05-01 13:51 | 50.15633 | 8.71765 | 30130 ft | 456 kts | 151° |
| 2026-05-01 13:51 | 50.12844 | 8.74071 | 30447 ft | 459 kts | 151° |
| 2026-05-01 13:51 | 50.09960 | 8.76322 | 30774 ft | 461 kts | 155° |
| 2026-05-01 13:51 | 50.06996 | 8.78148 | 31071 ft | 464 kts | 161° |
| 2026-05-01 13:52 | 50.03880 | 8.79495 | 31367 ft | 467 kts | 167° |
| 2026-05-01 13:52 | 50.00648 | 8.80326 | 31674 ft | 469 kts | 173° |
| 2026-05-01 13:52 | 49.97419 | 8.80613 | 32034 ft | 469 kts | 180° |
| 2026-05-01 13:52 | 49.94155 | 8.80356 | 32550 ft | 466 kts | 186° |
| 2026-05-01 13:53 | 49.90958 | 8.79590 | 32930 ft | 465 kts | 192° |
| 2026-05-01 13:53 | 49.84685 | 8.77344 | 33674 ft | 463 kts | 193° |
| 2026-05-01 13:53 | 49.81632 | 8.76259 | 34042 ft | 462 kts | 193° |
| 2026-05-01 13:54 | 49.78476 | 8.75220 | 34383 ft | 462 kts | 192° |
| 2026-05-01 13:54 | 49.75306 | 8.74286 | 34775 ft | 460 kts | 191° |
| 2026-05-01 13:54 | 49.72228 | 8.73455 | 35098 ft | 460 kts | 190° |
| 2026-05-01 13:54 | 49.69079 | 8.72674 | 35280 ft | 462 kts | 189° |
| 2026-05-01 13:55 | 49.62770 | 8.71249 | 35290 ft | 459 kts | 188° |
| 2026-05-01 13:55 | 49.56448 | 8.69926 | 35289 ft | 459 kts | 188° |
| 2026-05-01 13:56 | 49.50115 | 8.68790 | 35291 ft | 459 kts | 183° |
| 2026-05-01 13:56 | 49.43807 | 8.69900 | 35290 ft | 461 kts | 162° |
| 2026-05-01 13:57 | 49.37870 | 8.73560 | 35290 ft | 458 kts | 155° |
| 2026-05-01 13:57 | 49.32106 | 8.77648 | 35282 ft | 459 kts | 154° |
| 2026-05-01 13:58 | 49.26320 | 8.81793 | 35277 ft | 459 kts | 154° |
| 2026-05-01 13:58 | 49.20557 | 8.85856 | 35274 ft | 458 kts | 155° |
| 2026-05-01 13:59 | 49.14759 | 8.89888 | 35276 ft | 458 kts | 155° |
| 2026-05-01 13:59 | 49.08938 | 8.93902 | 35273 ft | 459 kts | 155° |
| 2026-05-01 14:00 | 49.03109 | 8.97902 | 35276 ft | 460 kts | 155° |
| 2026-05-01 14:00 | 48.97259 | 9.01903 | 35278 ft | 460 kts | 155° |
| 2026-05-01 14:01 | 48.91437 | 9.05873 | 35276 ft | 460 kts | 155° |
| 2026-05-01 14:01 | 48.85717 | 9.09763 | 35277 ft | 460 kts | 155° |
| 2026-05-01 14:02 | 48.79900 | 9.13710 | 35280 ft | 460 kts | 155° |
| 2026-05-01 14:02 | 48.74116 | 9.17624 | 35287 ft | 460 kts | 155° |
| 2026-05-01 14:03 | 48.68272 | 9.21570 | 35287 ft | 462 kts | 154° |
| 2026-05-01 14:03 | 48.62394 | 9.25533 | 35287 ft | 461 kts | 155° |
| 2026-05-01 14:04 | 48.56446 | 9.29023 | 35279 ft | 460 kts | 160° |
| 2026-05-01 14:04 | 48.50372 | 9.32066 | 35274 ft | 462 kts | 161° |
| 2026-05-01 14:05 | 48.44245 | 9.35075 | 35270 ft | 462 kts | 160° |
| 2026-05-01 14:05 | 48.38174 | 9.38092 | 35272 ft | 462 kts | 160° |
| 2026-05-01 14:06 | 48.32078 | 9.41156 | 35272 ft | 462 kts | 160° |
| 2026-05-01 14:06 | 48.25981 | 9.44234 | 35272 ft | 463 kts | 160° |
| 2026-05-01 14:07 | 48.19893 | 9.47311 | 35271 ft | 462 kts | 160° |
| 2026-05-01 14:08 | 48.10740 | 9.51930 | 35271 ft | 463 kts | 160° |
| 2026-05-01 14:08 | 48.04628 | 9.55115 | 35270 ft | 462 kts | 156° |
| 2026-05-01 14:09 | 47.98918 | 9.59368 | 35270 ft | 461 kts | 147° |
| 2026-05-01 14:09 | 47.93562 | 9.64580 | 35275 ft | 460 kts | 143° |
| 2026-05-01 14:10 | 47.88405 | 9.69943 | 35277 ft | 460 kts | 143° |
| 2026-05-01 14:10 | 47.83140 | 9.75424 | 35284 ft | 461 kts | 143° |
| 2026-05-01 14:11 | 47.77906 | 9.80806 | 35280 ft | 462 kts | 143° |
| 2026-05-01 14:11 | 47.69980 | 9.88867 | 35281 ft | 462 kts | 143° |
| 2026-05-01 14:12 | 47.64656 | 9.94245 | 35285 ft | 462 kts | 143° |
| 2026-05-01 14:12 | 47.59373 | 9.99566 | 35293 ft | 462 kts | 143° |
| 2026-05-01 14:13 | 47.54024 | 10.04936 | 35300 ft | 463 kts | 143° |
| 2026-05-01 14:13 | 47.48710 | 10.10259 | 35303 ft | 463 kts | 143° |
| 2026-05-01 14:14 | 47.43380 | 10.15584 | 35317 ft | 464 kts | 143° |
| 2026-05-01 14:14 | 47.38047 | 10.20900 | 35312 ft | 463 kts | 143° |
| 2026-05-01 14:15 | 47.32711 | 10.26205 | 35331 ft | 463 kts | 143° |
| 2026-05-01 14:15 | 47.27386 | 10.31485 | 35340 ft | 464 kts | 143° |
| 2026-05-01 14:16 | 47.22011 | 10.36801 | 35353 ft | 463 kts | 143° |
| 2026-05-01 14:16 | 47.16671 | 10.42070 | 35353 ft | 464 kts | 143° |
| 2026-05-01 14:17 | 47.11312 | 10.47345 | 35356 ft | 465 kts | 143° |
| 2026-05-01 14:17 | 47.05795 | 10.52326 | 35351 ft | 466 kts | 150° |
| 2026-05-01 14:18 | 46.99805 | 10.55875 | 35353 ft | 469 kts | 159° |
| 2026-05-01 14:18 | 46.93531 | 10.58699 | 35356 ft | 471 kts | 161° |
| 2026-05-01 14:19 | 46.87219 | 10.61401 | 35350 ft | 471 kts | 161° |
| 2026-05-01 14:19 | 46.81011 | 10.64094 | 35353 ft | 471 kts | 160° |
| 2026-05-01 14:20 | 46.71596 | 10.68243 | 35350 ft | 472 kts | 161° |
| 2026-05-01 14:21 | 46.65195 | 10.70576 | 35349 ft | 474 kts | 165° |
| 2026-05-01 14:21 | 46.58701 | 10.72595 | 35346 ft | 474 kts | 166° |
| 2026-05-01 14:22 | 46.49060 | 10.75579 | 35344 ft | 474 kts | 165° |
| 2026-05-01 14:22 | 46.42592 | 10.77635 | 35341 ft | 475 kts | 165° |
| 2026-05-01 14:23 | 46.36166 | 10.79698 | 35333 ft | 474 kts | 165° |
| 2026-05-01 14:23 | 46.29710 | 10.81780 | 35318 ft | 475 kts | 165° |
| 2026-05-01 14:24 | 46.23298 | 10.83848 | 35309 ft | 475 kts | 165° |
| 2026-05-01 14:24 | 46.16849 | 10.85924 | 35305 ft | 474 kts | 165° |
| 2026-05-01 14:25 | 46.10394 | 10.87997 | 35302 ft | 475 kts | 165° |
| 2026-05-01 14:25 | 46.03969 | 10.90057 | 35294 ft | 475 kts | 165° |
| 2026-05-01 14:26 | 45.94270 | 10.93157 | 35280 ft | 475 kts | 165° |
| 2026-05-01 14:27 | 45.87909 | 10.95184 | 35275 ft | 477 kts | 165° |
| 2026-05-01 14:27 | 45.81447 | 10.97238 | 35281 ft | 478 kts | 165° |
| 2026-05-01 14:28 | 45.71722 | 11.00322 | 35295 ft | 477 kts | 165° |
| 2026-05-01 14:28 | 45.65218 | 11.02381 | 35299 ft | 478 kts | 165° |
| 2026-05-01 14:29 | 45.58739 | 11.04534 | 35307 ft | 478 kts | 163° |
| 2026-05-01 14:30 | 45.45867 | 11.09131 | 35305 ft | 479 kts | 163° |
| 2026-05-01 14:31 | 45.36189 | 11.12570 | 35311 ft | 478 kts | 163° |
| 2026-05-01 14:31 | 45.29709 | 11.14852 | 35301 ft | 480 kts | 163° |
| 2026-05-01 14:32 | 45.23216 | 11.17123 | 35300 ft | 481 kts | 163° |
| 2026-05-01 14:32 | 45.16699 | 11.19394 | 35301 ft | 481 kts | 163° |
| 2026-05-01 14:33 | 45.10201 | 11.21653 | 35310 ft | 482 kts | 163° |
| 2026-05-01 14:33 | 45.03674 | 11.23919 | 35306 ft | 483 kts | 163° |
| 2026-05-01 14:34 | 44.97165 | 11.26172 | 35302 ft | 482 kts | 163° |
| 2026-05-01 14:34 | 44.90657 | 11.28418 | 35302 ft | 482 kts | 163° |
| 2026-05-01 14:35 | 44.84117 | 11.30671 | 35298 ft | 482 kts | 163° |
| 2026-05-01 14:35 | 44.77554 | 11.32927 | 35303 ft | 484 kts | 163° |
| 2026-05-01 14:36 | 44.71047 | 11.35159 | 35303 ft | 483 kts | 163° |
| 2026-05-01 14:36 | 44.64506 | 11.37397 | 35306 ft | 485 kts | 163° |
| 2026-05-01 14:37 | 44.57918 | 11.39644 | 35309 ft | 486 kts | 163° |
| 2026-05-01 14:37 | 44.51363 | 11.41879 | 35307 ft | 486 kts | 162° |
| 2026-05-01 14:38 | 44.44819 | 11.44102 | 35313 ft | 487 kts | 163° |
| 2026-05-01 14:38 | 44.38248 | 11.46329 | 35317 ft | 486 kts | 163° |
| 2026-05-01 14:39 | 44.31661 | 11.48559 | 35310 ft | 487 kts | 162° |
| 2026-05-01 14:39 | 44.25060 | 11.50784 | 35169 ft | 486 kts | 163° |
| 2026-05-01 14:39 | 44.21781 | 11.51888 | 35342 ft | 487 kts | 162° |
| 2026-05-01 14:40 | 44.18500 | 11.52992 | 35252 ft | 486 kts | 162° |
| 2026-05-01 14:40 | 44.11882 | 11.55217 | 35300 ft | 491 kts | 163° |
| 2026-05-01 14:41 | 44.05289 | 11.57425 | 35306 ft | 488 kts | 162° |
| 2026-05-01 14:41 | 43.98647 | 11.59647 | 35294 ft | 488 kts | 163° |
| 2026-05-01 14:42 | 43.92061 | 11.61842 | 35299 ft | 490 kts | 162° |
| 2026-05-01 14:42 | 43.85496 | 11.64027 | 35297 ft | 491 kts | 162° |
| 2026-05-01 14:43 | 43.78831 | 11.66242 | 35298 ft | 493 kts | 163° |
| 2026-05-01 14:43 | 43.72115 | 11.68465 | 35289 ft | 495 kts | 163° |
| 2026-05-01 14:44 | 43.65451 | 11.70665 | 35286 ft | 494 kts | 163° |
| 2026-05-01 14:44 | 43.55353 | 11.73996 | 35280 ft | 500 kts | 163° |
| 2026-05-01 14:45 | 43.45229 | 11.77321 | 35271 ft | 498 kts | 163° |
| 2026-05-01 14:46 | 43.38491 | 11.79525 | 35275 ft | 500 kts | 163° |
| 2026-05-01 14:46 | 43.28281 | 11.82858 | 35262 ft | 504 kts | 163° |
| 2026-05-01 14:47 | 43.21488 | 11.85068 | 35261 ft | 504 kts | 163° |
| 2026-05-01 14:48 | 43.11252 | 11.88388 | 35242 ft | 504 kts | 163° |
| 2026-05-01 14:48 | 43.00919 | 11.91736 | 35238 ft | 507 kts | 162° |
| 2026-05-01 14:49 | 42.87154 | 11.96173 | 35228 ft | 511 kts | 163° |
| 2026-05-01 14:50 | 42.73329 | 12.00603 | 35169 ft | 510 kts | 163° |
| 2026-05-01 14:51 | 42.62932 | 12.03927 | 35197 ft | 513 kts | 164° |
| 2026-05-01 14:52 | 42.52535 | 12.07228 | 35189 ft | 510 kts | 164° |
| 2026-05-01 14:53 | 42.42170 | 12.10517 | 35182 ft | 511 kts | 164° |
| 2026-05-01 14:53 | 42.35226 | 12.12715 | 35184 ft | 511 kts | 165° |
| 2026-05-01 14:54 | 42.28323 | 12.14898 | 35194 ft | 510 kts | 165° |
| 2026-05-01 14:54 | 42.21408 | 12.17078 | 35175 ft | 512 kts | 165° |
| 2026-05-01 14:55 | 42.14501 | 12.19247 | 35176 ft | 510 kts | 165° |
| 2026-05-01 14:55 | 42.07557 | 12.21429 | 35174 ft | 512 kts | 165° |
| 2026-05-01 14:56 | 42.00631 | 12.23585 | 35006 ft | 510 kts | 166° |
| 2026-05-01 14:56 | 41.93742 | 12.25723 | 35159 ft | 510 kts | 166° |
| 2026-05-01 14:57 | 41.86821 | 12.27883 | 35166 ft | 514 kts | 165° |
| 2026-05-01 14:57 | 41.76405 | 12.31128 | 35184 ft | 513 kts | 166° |
| 2026-05-01 14:58 | 41.69456 | 12.33284 | 35178 ft | 512 kts | 166° |
| 2026-05-01 14:58 | 41.62529 | 12.35424 | 35182 ft | 514 kts | 166° |
| 2026-05-01 14:59 | 41.55540 | 12.37578 | 35155 ft | 514 kts | 166° |
| 2026-05-01 14:59 | 41.48611 | 12.39706 | 35177 ft | 514 kts | 167° |
| 2026-05-01 15:00 | 41.38123 | 12.42925 | 35160 ft | 516 kts | 168° |
| 2026-05-01 15:01 | 41.31158 | 12.45058 | 35181 ft | 514 kts | 167° |
| 2026-05-01 15:01 | 41.24188 | 12.47185 | 35174 ft | 514 kts | 167° |
| 2026-05-01 15:02 | 41.17213 | 12.49306 | 35201 ft | 514 kts | 168° |
| 2026-05-01 15:02 | 41.10230 | 12.51428 | 35160 ft | 512 kts | 168° |
| 2026-05-01 15:03 | 41.03305 | 12.53532 | 35181 ft | 514 kts | 168° |
| 2026-05-01 15:03 | 40.96346 | 12.55638 | 35176 ft | 512 kts | 169° |
| 2026-05-01 15:04 | 40.89393 | 12.57732 | 35173 ft | 514 kts | 169° |
| 2026-05-01 15:04 | 40.82423 | 12.59835 | 35185 ft | 512 kts | 169° |
| 2026-05-01 15:05 | 40.75474 | 12.61926 | 35195 ft | 514 kts | 169° |
| 2026-05-01 15:05 | 40.68460 | 12.64026 | 35181 ft | 514 kts | 169° |
| 2026-05-01 15:06 | 40.61477 | 12.66111 | 35184 ft | 513 kts | 171° |
| 2026-05-01 15:06 | 40.54507 | 12.68198 | 35198 ft | 513 kts | 171° |
| 2026-05-01 15:07 | 40.47522 | 12.70277 | 35187 ft | 516 kts | 171° |
| 2026-05-01 15:07 | 40.40558 | 12.72347 | 35185 ft | 515 kts | 171° |
| 2026-05-01 15:08 | 40.33555 | 12.74426 | 35182 ft | 516 kts | 171° |
| 2026-05-01 15:08 | 40.26517 | 12.76515 | 35191 ft | 520 kts | 171° |
| 2026-05-01 15:09 | 40.19555 | 12.78576 | 35166 ft | 513 kts | 171° |
| 2026-05-01 15:09 | 40.12546 | 12.80640 | 35184 ft | 518 kts | 172° |
| 2026-05-01 15:10 | 40.05505 | 12.82710 | 35176 ft | 519 kts | 172° |
| 2026-05-01 15:10 | 39.94936 | 12.85811 | 35184 ft | 518 kts | 172° |
| 2026-05-01 15:11 | 39.84492 | 12.88862 | 35178 ft | 517 kts | 172° |
| 2026-05-01 15:12 | 39.77503 | 12.90904 | 35175 ft | 512 kts | 172° |
| 2026-05-01 15:12 | 39.67008 | 12.93958 | 35175 ft | 513 kts | 172° |
| 2026-05-01 15:14 | 39.49696 | 12.98983 | 35164 ft | 508 kts | 173° |
| 2026-05-01 15:14 | 39.39326 | 13.01979 | 35163 ft | 509 kts | 173° |
| 2026-05-01 15:15 | 39.25573 | 13.05932 | 35165 ft | 506 kts | 174° |
| 2026-05-01 15:16 | 39.11889 | 13.09853 | 35159 ft | 504 kts | 174° |
| 2026-05-01 15:18 | 38.94850 | 13.14709 | 35155 ft | 500 kts | 174° |
| 2026-05-01 15:19 | 38.81222 | 13.18572 | 35140 ft | 500 kts | 174° |
| 2026-05-01 15:19 | 38.71097 | 13.21436 | 35138 ft | 495 kts | 174° |
| 2026-05-01 15:20 | 38.60963 | 13.24294 | 35140 ft | 497 kts | 174° |
| 2026-05-01 15:21 | 38.54219 | 13.26193 | 35130 ft | 496 kts | 174° |
| 2026-05-01 15:21 | 38.47486 | 13.28084 | 35143 ft | 496 kts | 174° |
| 2026-05-01 15:22 | 38.37426 | 13.30906 | 35131 ft | 494 kts | 174° |
| 2026-05-01 15:22 | 38.30697 | 13.32787 | 35124 ft | 490 kts | 175° |
| 2026-05-01 15:23 | 38.24007 | 13.34653 | 35118 ft | 491 kts | 175° |
| 2026-05-01 15:23 | 38.17328 | 13.36510 | 35138 ft | 491 kts | 175° |
| 2026-05-01 15:24 | 38.10684 | 13.38358 | 35133 ft | 491 kts | 175° |
| 2026-05-01 15:24 | 38.04029 | 13.40201 | 35149 ft | 488 kts | 175° |
| 2026-05-01 15:25 | 37.97406 | 13.42039 | 35129 ft | 487 kts | 175° |
| 2026-05-01 15:25 | 37.90803 | 13.43866 | 35119 ft | 487 kts | 175° |
| 2026-05-01 15:26 | 37.84146 | 13.45701 | 35118 ft | 488 kts | 175° |
| 2026-05-01 15:26 | 37.77580 | 13.47512 | 35117 ft | 486 kts | 175° |
| 2026-05-01 15:27 | 37.70938 | 13.49335 | 35110 ft | 487 kts | 175° |
| 2026-05-01 15:28 | 37.61040 | 13.52049 | 35119 ft | 485 kts | 175° |
| 2026-05-01 15:28 | 37.54447 | 13.53853 | 35115 ft | 485 kts | 175° |
| 2026-05-01 15:29 | 37.44702 | 13.56523 | 34634 ft | 475 kts | 175° |
| 2026-05-01 15:29 | 37.38196 | 13.58291 | 33139 ft | 479 kts | 175° |
| 2026-05-01 15:30 | 37.31670 | 13.60059 | 31503 ft | 483 kts | 175° |
| 2026-05-01 15:31 | 37.18507 | 13.63626 | 28556 ft | 481 kts | 175° |
| 2026-05-01 15:31 | 37.12047 | 13.65602 | 27286 ft | 481 kts | 170° |
| 2026-05-01 15:32 | 37.05721 | 13.68478 | 25928 ft | 481 kts | 165° |
| 2026-05-01 15:32 | 36.99569 | 13.71691 | 24552 ft | 478 kts | 163° |
| 2026-05-01 15:33 | 36.90468 | 13.76492 | 22515 ft | 473 kts | 162° |
| 2026-05-01 15:34 | 36.81399 | 13.81189 | 20429 ft | 468 kts | 162° |